MSC Carolina — 3ECV5 — position and weather

sailwx.info

Track history (hours):
 
Tides and Currents Weather Stations Pressure Air Temp Water Temp Dewpoint Dewpoint Depression Visibility Wind Speed Wind Dir Waves Ship Positions

MSC Carolina

Last reported at 2014-Sep-20 13:08 UTC. Time now 2014-Sep-20 13:57 UTC.
Position N 37°34' E 010°42'.

Length 275 m; draft 12.4 m.

Type: Ship (hazmat cat B). MMSI: 371475000.

Date/timePositionNaut miles runAvg speedWind from/ knotsBaromVisibWave heightAir tempDewpointWater temp
2014-Sep-20 13:08N 37°34' E 010°42'813.0
2014-Sep-20 12:33N 37°38' E 010°34'1513.3
2014-Sep-20 11:25N 37°45' E 010°18'1213.1
2014-Sep-20 10:28N 37°51' E 010°04'1212.7
2014-Sep-20 09:33N 37°53' E 009°49'1312.6
2014-Sep-20 08:32N 37°55' E 009°33'1312.7
2014-Sep-20 07:33N 37°57' E 009°18'2613.1
2014-Sep-20 05:33N 38°00' E 008°45'1413.3
2014-Sep-20 04:30N 38°02' E 008°27'9212.9
2014-Sep-19 21:22N 38°16' E 006°31'12314.0
2014-Sep-19 12:33N 38°40' E 003°57'4013.2
2014-Sep-19 09:33N 38°53' E 003°09'1612.8
2014-Sep-19 08:18N 38°59' E 002°50'1413.4
2014-Sep-19 07:15N 39°03' E 002°33'1416.2
2014-Sep-19 06:24N 39°07' E 002°16'11713.3
2014-Sep-18 21:33N 39°25' W 000°14'5 4.5
2014-Sep-18 20:33N 39°26' W 000°19'0 0.0
2014-Sep-18 19:32N 39°26' W 000°19'0 0.0
2014-Sep-18 18:26N 39°26' W 000°19'0 0.0
2014-Sep-18 17:29N 39°26' W 000°19'0 0.0
2014-Sep-18 16:32N 39°26' W 000°19'0 0.0
2014-Sep-18 15:32N 39°26' W 000°19'0 0.0
2014-Sep-18 14:26N 39°26' W 000°19'0 0.0
2014-Sep-18 13:32N 39°26' W 000°19'0 0.0
2014-Sep-18 12:32N 39°26' W 000°19'0 0.0
2014-Sep-18 11:26N 39°26' W 000°19'0 0.0
2014-Sep-18 10:32N 39°26' W 000°19'0 0.0
2014-Sep-18 09:32N 39°26' W 000°19'0 0.0
2014-Sep-18 08:32N 39°26' W 000°19'0 0.0
2014-Sep-18 07:31N 39°26' W 000°19'0 0.0
2014-Sep-18 06:31N 39°26' W 000°19'0 0.0
2014-Sep-18 05:32N 39°26' W 000°19'3 3.4
2014-Sep-18 04:33N 39°25' W 000°15'3 2.5
2014-Sep-18 03:33N 39°25' W 000°12'6 6.4
2014-Sep-18 02:32N 39°23' W 000°04'87 8.4
2014-Sep-17 16:09N 37°56' W 000°11'610.8
2014-Sep-17 15:33N 37°51' W 000°16'1110.8
2014-Sep-17 14:33N 37°42' W 000°23'1110.8
2014-Sep-17 13:33N 37°33' W 000°32'1110.8
2014-Sep-17 12:33N 37°26' W 000°42'1110.6
2014-Sep-17 11:33N 37°19' W 000°52'1110.6
2014-Sep-17 10:33N 37°12' W 001°02'21515.3
2014-Sep-16 20:29N 35°59' W 005°14'17616.0
2014-Sep-16 09:29N 36°26' W 008°50'8314.0
2014-Sep-16 03:33N 37°36' W 009°47'1514.8
2014-Sep-16 02:32N 37°50' W 009°51'1414.2
2014-Sep-16 01:33N 38°04' W 009°56'  
2014-Sep-13 16:30N 50°16' W 001°25'2418.9
2014-Sep-13 15:13N 50°23' W 000°49'1116.9
2014-Sep-13 14:33N 50°26' W 000°32'2215.9
2014-Sep-13 13:11N 50°31' E 000°01'1014.7
2014-Sep-13 12:29N 50°34' E 000°17'1314.1
2014-Sep-13 11:33N 50°38' E 000°36'1515.2
2014-Sep-13 10:33N 50°47' E 000°55'2222.0
2014-Sep-13 09:33N 51°02' E 001°23'1414.2
2014-Sep-13 08:34N 51°10' E 001°40'1716.7
2014-Sep-13 07:33N 51°23' E 001°57'1814.4
2014-Sep-13 06:19N 51°22' E 002°26'1215.2
2014-Sep-13 05:33N 51°22' E 002°44'1716.2
2014-Sep-13 04:31N 51°24' E 003°11'1616.5
2014-Sep-13 03:33N 51°26' E 003°36'1211.6
2014-Sep-13 02:33N 51°21' E 003°53'10 9.9
2014-Sep-13 01:33N 51°22' E 004°09'6 5.7
2014-Sep-13 00:34N 51°21' E 004°17'0 0.1
2014-Sep-12 23:34N 51°21' E 004°17'2 1.6
2014-Sep-12 22:33N 51°19' E 004°19'1 0.7
2014-Sep-12 21:29N 51°20' E 004°20'0 0.0
2014-Sep-12 20:17N 51°20' E 004°20'0 0.0
2014-Sep-12 19:17N 51°19' E 004°20'0 0.0
2014-Sep-12 18:32N 51°20' E 004°20'0 0.0
2014-Sep-12 17:32N 51°19' E 004°20'0 0.0
2014-Sep-12 16:32N 51°20' E 004°20'0 0.0
2014-Sep-12 15:29N 51°19' E 004°20'0 0.0
2014-Sep-12 14:29N 51°19' E 004°20'0 0.0
2014-Sep-12 13:23N 51°19' E 004°20'0 0.0
2014-Sep-12 12:23N 51°19' E 004°20'0 0.0
2014-Sep-12 11:26N 51°19' E 004°20'0 0.0
2014-Sep-12 10:29N 51°19' E 004°20'0 0.0
2014-Sep-12 09:32N 51°19' E 004°20'0 0.0
2014-Sep-12 08:32N 51°19' E 004°20'0 0.0
2014-Sep-12 07:32N 51°19' E 004°20'0 0.0
2014-Sep-12 06:32N 51°19' E 004°20'0 0.0
2014-Sep-12 05:29N 51°19' E 004°20'0 0.0
2014-Sep-12 04:32N 51°20' E 004°20'0 0.0
2014-Sep-12 03:29N 51°19' E 004°20'0 0.0
2014-Sep-12 02:32N 51°20' E 004°20'0 0.0
2014-Sep-12 01:29N 51°19' E 004°20'0 0.0
2014-Sep-12 00:29N 51°20' E 004°20'0 0.0
2014-Sep-11 23:32N 51°19' E 004°20'0 0.0
2014-Sep-11 22:32N 51°19' E 004°20'0 0.0
2014-Sep-11 21:32N 51°20' E 004°20'0 0.0
2014-Sep-11 20:32N 51°20' E 004°20'0 0.0
2014-Sep-11 19:32N 51°19' E 004°20'0 0.0
2014-Sep-11 18:29N 51°20' E 004°20'0 0.0
2014-Sep-11 17:32N 51°19' E 004°20'2 2.1
2014-Sep-11 16:34N 51°21' E 004°17'0 0.1
2014-Sep-11 15:34N 51°21' E 004°17'4 4.4
2014-Sep-11 14:33N 51°24' E 004°12'9 8.8
2014-Sep-11 13:33N 51°25' E 003°58'8 8.1
2014-Sep-11 12:34N 51°21' E 003°47'8 8.0
2014-Sep-11 11:34N 51°26' E 003°36'7 6.6
2014-Sep-11 10:33N 51°25' E 003°26'1515.3
2014-Sep-11 09:33N 51°25' E 003°01'1918.6
2014-Sep-11 08:32N 51°43' E 003°13'9 9.1
2014-Sep-11 07:32N 51°46' E 002°59'1 1.4
2014-Sep-11 06:31N 51°47' E 003°01'1 1.1
2014-Sep-11 05:33N 51°47' E 003°02'0 0.3
2014-Sep-11 04:25N 51°48' E 003°02'2 1.8
2014-Sep-11 03:32N 51°46' E 003°03'6 5.7
2014-Sep-11 02:25N 51°49' E 003°11'6 7.2
2014-Sep-11 01:33N 51°54' E 003°19'1313.4
2014-Sep-11 00:33N 52°03' E 003°34'1515.0
2014-Sep-10 23:33N 52°01' E 003°58'5 5.1
2014-Sep-10 22:33N 51°58' E 004°04'0 0.0
2014-Sep-10 21:33N 51°58' E 004°04'0 0.0
2014-Sep-10 20:33N 51°58' E 004°04'0 0.0
2014-Sep-10 19:33N 51°58' E 004°04'0 0.0
2014-Sep-10 18:33N 51°58' E 004°04'0 0.0
2014-Sep-10 17:33N 51°58' E 004°04'0 0.0
2014-Sep-10 16:29N 51°58' E 004°04'0 0.0
2014-Sep-10 15:29N 51°58' E 004°04'0 0.0
2014-Sep-10 14:32N 51°58' E 004°04'0 0.0
2014-Sep-10 13:32N 51°58' E 004°04'  
Track history (hours):
 
Tides and Currents Weather Stations Pressure Air Temp Water Temp Dewpoint Dewpoint Depression Visibility Wind Speed Wind Dir Waves Ship Positions

MSC Carolina

Last reported at 2014-Sep-20 13:08 UTC. Time now 2014-Sep-20 13:57 UTC.
Position N 37°34' E 010°42'.

Length 275 m; draft 12.4 m.

Type: Ship (hazmat cat B). MMSI: 371475000.

Date/timePositionNaut miles runAvg speedWind from/ knotsBaromVisibWave heightAir tempDewpointWater temp
2014-Sep-20 13:08N 37°34' E 010°42'813.0
2014-Sep-20 12:33N 37°38' E 010°34'1513.3
2014-Sep-20 11:25N 37°45' E 010°18'1213.1
2014-Sep-20 10:28N 37°51' E 010°04'1212.7
2014-Sep-20 09:33N 37°53' E 009°49'1312.6
2014-Sep-20 08:32N 37°55' E 009°33'1312.7
2014-Sep-20 07:33N 37°57' E 009°18'2613.1
2014-Sep-20 05:33N 38°00' E 008°45'1413.3
2014-Sep-20 04:30N 38°02' E 008°27'9212.9
2014-Sep-19 21:22N 38°16' E 006°31'12314.0
2014-Sep-19 12:33N 38°40' E 003°57'4013.2
2014-Sep-19 09:33N 38°53' E 003°09'1612.8
2014-Sep-19 08:18N 38°59' E 002°50'1413.4
2014-Sep-19 07:15N 39°03' E 002°33'1416.2
2014-Sep-19 06:24N 39°07' E 002°16'11713.3
2014-Sep-18 21:33N 39°25' W 000°14'5 4.5
2014-Sep-18 20:33N 39°26' W 000°19'0 0.0
2014-Sep-18 19:32N 39°26' W 000°19'0 0.0
2014-Sep-18 18:26N 39°26' W 000°19'0 0.0
2014-Sep-18 17:29N 39°26' W 000°19'0 0.0
2014-Sep-18 16:32N 39°26' W 000°19'0 0.0
2014-Sep-18 15:32N 39°26' W 000°19'0 0.0
2014-Sep-18 14:26N 39°26' W 000°19'0 0.0
2014-Sep-18 13:32N 39°26' W 000°19'0 0.0
2014-Sep-18 12:32N 39°26' W 000°19'0 0.0
2014-Sep-18 11:26N 39°26' W 000°19'0 0.0
2014-Sep-18 10:32N 39°26' W 000°19'0 0.0
2014-Sep-18 09:32N 39°26' W 000°19'0 0.0
2014-Sep-18 08:32N 39°26' W 000°19'0 0.0
2014-Sep-18 07:31N 39°26' W 000°19'0 0.0
2014-Sep-18 06:31N 39°26' W 000°19'0 0.0
2014-Sep-18 05:32N 39°26' W 000°19'3 3.4
2014-Sep-18 04:33N 39°25' W 000°15'3 2.5
2014-Sep-18 03:33N 39°25' W 000°12'6 6.4
2014-Sep-18 02:32N 39°23' W 000°04'87 8.4
2014-Sep-17 16:09N 37°56' W 000°11'610.8
2014-Sep-17 15:33N 37°51' W 000°16'1110.8
2014-Sep-17 14:33N 37°42' W 000°23'1110.8
2014-Sep-17 13:33N 37°33' W 000°32'1110.8
2014-Sep-17 12:33N 37°26' W 000°42'1110.6
2014-Sep-17 11:33N 37°19' W 000°52'1110.6
2014-Sep-17 10:33N 37°12' W 001°02'21515.3
2014-Sep-16 20:29N 35°59' W 005°14'17616.0
2014-Sep-16 09:29N 36°26' W 008°50'8314.0
2014-Sep-16 03:33N 37°36' W 009°47'1514.8
2014-Sep-16 02:32N 37°50' W 009°51'1414.2
2014-Sep-16 01:33N 38°04' W 009°56'  
2014-Sep-13 16:30N 50°16' W 001°25'2418.9
2014-Sep-13 15:13N 50°23' W 000°49'1116.9
2014-Sep-13 14:33N 50°26' W 000°32'2215.9
2014-Sep-13 13:11N 50°31' E 000°01'1014.7
2014-Sep-13 12:29N 50°34' E 000°17'1314.1
2014-Sep-13 11:33N 50°38' E 000°36'1515.2
2014-Sep-13 10:33N 50°47' E 000°55'2222.0
2014-Sep-13 09:33N 51°02' E 001°23'1414.2
2014-Sep-13 08:34N 51°10' E 001°40'1716.7
2014-Sep-13 07:33N 51°23' E 001°57'1814.4
2014-Sep-13 06:19N 51°22' E 002°26'1215.2
2014-Sep-13 05:33N 51°22' E 002°44'1716.2
2014-Sep-13 04:31N 51°24' E 003°11'1616.5
2014-Sep-13 03:33N 51°26' E 003°36'1211.6
2014-Sep-13 02:33N 51°21' E 003°53'10 9.9
2014-Sep-13 01:33N 51°22' E 004°09'6 5.7
2014-Sep-13 00:34N 51°21' E 004°17'0 0.1
2014-Sep-12 23:34N 51°21' E 004°17'2 1.6
2014-Sep-12 22:33N 51°19' E 004°19'1 0.7
2014-Sep-12 21:29N 51°20' E 004°20'0 0.0
2014-Sep-12 20:17N 51°20' E 004°20'0 0.0
2014-Sep-12 19:17N 51°19' E 004°20'0 0.0
2014-Sep-12 18:32N 51°20' E 004°20'0 0.0
2014-Sep-12 17:32N 51°19' E 004°20'0 0.0
2014-Sep-12 16:32N 51°20' E 004°20'0 0.0
2014-Sep-12 15:29N 51°19' E 004°20'0 0.0
2014-Sep-12 14:29N 51°19' E 004°20'0 0.0
2014-Sep-12 13:23N 51°19' E 004°20'0 0.0
2014-Sep-12 12:23N 51°19' E 004°20'0 0.0
2014-Sep-12 11:26N 51°19' E 004°20'0 0.0
2014-Sep-12 10:29N 51°19' E 004°20'0 0.0
2014-Sep-12 09:32N 51°19' E 004°20'0 0.0
2014-Sep-12 08:32N 51°19' E 004°20'0 0.0
2014-Sep-12 07:32N 51°19' E 004°20'0 0.0
2014-Sep-12 06:32N 51°19' E 004°20'0 0.0
2014-Sep-12 05:29N 51°19' E 004°20'0 0.0
2014-Sep-12 04:32N 51°20' E 004°20'0 0.0
2014-Sep-12 03:29N 51°19' E 004°20'0 0.0
2014-Sep-12 02:32N 51°20' E 004°20'0 0.0
2014-Sep-12 01:29N 51°19' E 004°20'0 0.0
2014-Sep-12 00:29N 51°20' E 004°20'0 0.0
2014-Sep-11 23:32N 51°19' E 004°20'0 0.0
2014-Sep-11 22:32N 51°19' E 004°20'0 0.0
2014-Sep-11 21:32N 51°20' E 004°20'0 0.0
2014-Sep-11 20:32N 51°20' E 004°20'0 0.0
2014-Sep-11 19:32N 51°19' E 004°20'0 0.0
2014-Sep-11 18:29N 51°20' E 004°20'0 0.0
2014-Sep-11 17:32N 51°19' E 004°20'2 2.1
2014-Sep-11 16:34N 51°21' E 004°17'0 0.1
2014-Sep-11 15:34N 51°21' E 004°17'4 4.4
2014-Sep-11 14:33N 51°24' E 004°12'9 8.8
2014-Sep-11 13:33N 51°25' E 003°58'8 8.1
2014-Sep-11 12:34N 51°21' E 003°47'8 8.0
2014-Sep-11 11:34N 51°26' E 003°36'7 6.6
2014-Sep-11 10:33N 51°25' E 003°26'1515.3
2014-Sep-11 09:33N 51°25' E 003°01'1918.6
2014-Sep-11 08:32N 51°43' E 003°13'9 9.1
2014-Sep-11 07:32N 51°46' E 002°59'1 1.4
2014-Sep-11 06:31N 51°47' E 003°01'1 1.1
2014-Sep-11 05:33N 51°47' E 003°02'0 0.3
2014-Sep-11 04:25N 51°48' E 003°02'2 1.8
2014-Sep-11 03:32N 51°46' E 003°03'6 5.7
2014-Sep-11 02:25N 51°49' E 003°11'6 7.2
2014-Sep-11 01:33N 51°54' E 003°19'1313.4
2014-Sep-11 00:33N 52°03' E 003°34'1515.0
2014-Sep-10 23:33N 52°01' E 003°58'5 5.1
2014-Sep-10 22:33N 51°58' E 004°04'0 0.0
2014-Sep-10 21:33N 51°58' E 004°04'0 0.0
2014-Sep-10 20:33N 51°58' E 004°04'0 0.0
2014-Sep-10 19:33N 51°58' E 004°04'0 0.0
2014-Sep-10 18:33N 51°58' E 004°04'0 0.0
2014-Sep-10 17:33N 51°58' E 004°04'0 0.0
2014-Sep-10 16:29N 51°58' E 004°04'0 0.0
2014-Sep-10 15:29N 51°58' E 004°04'0 0.0
2014-Sep-10 14:32N 51°58' E 004°04'0 0.0
2014-Sep-10 13:32N 51°58' E 004°04'  

Dump ship's entire track history